createdAt,value
2022-11-16T00:00:13.017Z,7.95
2022-11-16T00:02:45.385Z,6.75
2022-11-16T00:05:18.561Z,6.90
2022-11-16T00:07:51.662Z,5.25
2022-11-16T00:10:24.099Z,5.43
2022-11-16T00:12:56.569Z,6.72
2022-11-16T00:15:29.023Z,6.93
2022-11-16T00:18:01.384Z,7.28
2022-11-16T00:20:33.795Z,21.23
2022-11-16T00:23:06.815Z,9.27
2022-11-16T00:25:39.230Z,8.80
2022-11-16T00:28:12.206Z,18.05
2022-11-16T00:30:44.577Z,8.80
2022-11-16T00:33:16.961Z,7.80
2022-11-16T00:35:49.358Z,7.68
2022-11-16T00:38:22.739Z,7.20
2022-11-16T00:40:55.170Z,8.15
2022-11-16T00:43:27.768Z,7.00
2022-11-16T00:46:00.200Z,6.25
2022-11-16T00:48:32.901Z,6.70
2022-11-16T00:51:05.931Z,6.15
2022-11-16T00:53:39.385Z,4.72
2022-11-16T00:56:12.080Z,6.65
2022-11-16T00:58:48.840Z,8.52
2022-11-16T01:01:22.801Z,7.32
2022-11-16T01:03:56.674Z,7.75
2022-11-16T01:06:29.100Z,8.18
2022-11-16T01:09:02.244Z,9.38
2022-11-16T01:11:52.723Z,7.88
2022-11-16T01:14:25.141Z,8.27
2022-11-16T01:16:57.857Z,9.52
2022-11-16T01:19:30.686Z,11.10
2022-11-16T01:22:03.547Z,9.80
2022-11-16T01:24:36.685Z,6.47
2022-11-16T01:27:09.077Z,7.25
2022-11-16T01:29:45.029Z,8.63
2022-11-16T01:32:17.584Z,8.02
2022-11-16T01:34:50.428Z,8.90
2022-11-16T01:37:31.042Z,8.30
2022-11-16T01:40:05.192Z,10.77
2022-11-16T01:42:38.894Z,7.28
2022-11-16T01:45:22.445Z,8.43
2022-11-16T01:47:57.604Z,7.25
2022-11-16T01:50:35.666Z,6.57
2022-11-16T01:53:10.401Z,6.63
2022-11-16T01:55:56.986Z,6.53
2022-11-16T01:58:34.769Z,7.40
2022-11-16T02:01:17.965Z,7.40
2022-11-16T02:03:55.542Z,7.45
2022-11-16T02:06:35.361Z,8.80
2022-11-16T02:09:56.610Z,7.75
2022-11-16T02:12:57.043Z,6.85
2022-11-16T02:15:42.939Z,7.50
2022-11-16T02:18:31.374Z,8.23
2022-11-16T02:21:14.812Z,9.32
2022-11-16T02:24:19.560Z,8.88
2022-11-16T02:27:22.739Z,10.52
2022-11-16T02:29:56.834Z,9.15
2022-11-16T02:32:33.382Z,9.27
2022-11-16T02:35:12.742Z,8.32
2022-11-16T02:37:52.480Z,6.73
2022-11-16T02:40:30.054Z,6.18
2022-11-16T02:43:07.500Z,7.57
2022-11-16T02:45:44.623Z,6.15
2022-11-16T02:48:22.613Z,7.50
2022-11-16T02:50:55.799Z,8.05
2022-11-16T02:53:28.208Z,7.07
2022-11-16T02:56:04.314Z,7.13
2022-11-16T02:58:37.235Z,4.97
2022-11-16T03:01:16.082Z,6.85
2022-11-16T03:03:53.418Z,6.43
2022-11-16T03:06:29.710Z,7.78
2022-11-16T03:09:08.290Z,7.40
2022-11-16T03:11:59.488Z,7.25
2022-11-16T03:14:38.004Z,7.35
2022-11-16T03:17:17.440Z,7.68
2022-11-16T03:19:57.637Z,6.90
2022-11-16T03:22:35.047Z,8.63
2022-11-16T03:25:10.490Z,6.47
2022-11-16T03:27:49.481Z,9.15
2022-11-16T03:30:24.882Z,7.47
2022-11-16T03:33:08.071Z,7.13
2022-11-16T03:35:49.033Z,8.60
2022-11-16T03:38:24.836Z,6.22
2022-11-16T03:41:01.373Z,6.53
2022-11-16T03:43:36.554Z,7.90
2022-11-16T03:46:10.199Z,8.25
2022-11-16T03:48:43.465Z,9.48
2022-11-16T03:51:25.414Z,7.95
2022-11-16T03:53:59.387Z,8.15
2022-11-16T03:56:31.888Z,9.05
2022-11-16T03:59:04.344Z,7.72
2022-11-16T04:01:40.436Z,6.70
2022-11-16T04:04:35.944Z,7.35
2022-11-16T04:07:28.330Z,6.70
2022-11-16T04:10:18.683Z,6.78
2022-11-16T04:13:10.562Z,6.15
2022-11-16T04:16:01.478Z,8.10
2022-11-16T04:18:52.011Z,7.28
2022-11-16T04:21:47.026Z,7.65
2022-11-16T04:24:22.747Z,8.13
2022-11-16T04:27:17.158Z,9.05
2022-11-16T04:29:50.434Z,7.65
2022-11-16T04:32:41.479Z,8.18
2022-11-16T04:35:40.843Z,9.18
2022-11-16T04:38:15.209Z,8.52
2022-11-16T04:40:47.609Z,8.70
2022-11-16T04:43:20.653Z,8.50
2022-11-16T04:46:11.043Z,7.55
2022-11-16T04:48:45.298Z,7.55
2022-11-16T04:51:17.721Z,7.82
2022-11-16T04:53:51.009Z,7.15
2022-11-16T04:56:27.586Z,6.15
2022-11-16T04:59:00.358Z,6.43
2022-11-16T05:01:50.920Z,7.70
2022-11-16T05:04:23.707Z,7.13
2022-11-16T05:06:56.835Z,8.70
2022-11-16T05:09:29.965Z,6.28
2022-11-16T05:12:02.981Z,6.38
2022-11-16T05:14:35.490Z,7.45
2022-11-16T05:17:08.498Z,7.13
2022-11-16T05:19:59.883Z,7.75
2022-11-16T05:22:34.653Z,7.97
2022-11-16T05:25:10.398Z,7.50
2022-11-16T05:27:43.338Z,7.63
2022-11-16T05:30:16.618Z,7.53
2022-11-16T05:32:49.285Z,6.82
2022-11-16T05:35:24.421Z,7.70
2022-11-16T05:37:57.066Z,7.15
2022-11-16T05:40:32.202Z,8.60
2022-11-16T05:43:04.598Z,7.35
2022-11-16T05:45:42.957Z,6.68
2022-11-16T05:48:17.150Z,6.53
2022-11-16T05:50:49.704Z,6.82
2022-11-16T05:53:28.593Z,8.03
2022-11-16T05:56:01.846Z,7.80
2022-11-16T05:58:35.741Z,7.45
2022-11-16T06:01:08.908Z,7.07
2022-11-16T06:03:41.443Z,7.45
2022-11-16T06:06:13.935Z,7.10
2022-11-16T06:08:47.293Z,7.53
2022-11-16T06:11:25.645Z,8.55
2022-11-16T06:13:58.097Z,5.82
2022-11-16T06:16:31.051Z,6.70
2022-11-16T06:19:04.762Z,6.05
2022-11-16T06:21:37.135Z,7.25
2022-11-16T06:24:13.105Z,6.00
2022-11-16T06:26:47.875Z,6.00
2022-11-16T06:29:20.483Z,6.22
2022-11-16T06:31:52.914Z,7.20
2022-11-16T06:34:25.454Z,5.82
2022-11-16T06:36:57.913Z,6.50
2022-11-16T06:39:30.418Z,6.85
2022-11-16T06:42:04.125Z,7.55
2022-11-16T06:44:36.603Z,5.57
2022-11-16T06:47:10.040Z,5.57
2022-11-16T06:49:42.534Z,6.25
2022-11-16T06:54:55.390Z,7.10
2022-11-16T06:57:28.697Z,7.20
2022-11-16T07:00:01.125Z,7.38
2022-11-16T07:02:33.633Z,6.90
2022-11-16T07:05:08.153Z,6.82
2022-11-16T07:07:40.672Z,5.93
2022-11-16T07:10:13.909Z,7.28
2022-11-16T07:12:48.468Z,6.72
2022-11-16T07:15:22.430Z,5.97
2022-11-16T07:17:54.855Z,6.07
2022-11-16T07:20:27.276Z,7.15
2022-11-16T07:23:00.728Z,5.88
2022-11-16T07:25:34.142Z,7.18
2022-11-16T07:28:08.136Z,7.80
2022-11-16T07:30:43.988Z,5.43
2022-11-16T07:33:19.468Z,6.50
2022-11-16T07:36:16.751Z,6.18
2022-11-16T07:38:49.246Z,6.85
2022-11-16T07:41:21.720Z,7.38
2022-11-16T07:44:08.435Z,6.22
2022-11-16T07:46:47.943Z,6.90
2022-11-16T07:49:21.809Z,5.47
2022-11-16T07:52:03.393Z,6.63
2022-11-16T07:54:56.017Z,5.47
2022-11-16T07:57:31.051Z,5.78
2022-11-16T08:00:08.953Z,5.32
2022-11-16T08:02:51.789Z,7.90
2022-11-16T08:05:26.051Z,7.15
2022-11-16T08:07:59.679Z,5.25
2022-11-16T08:10:32.280Z,6.35
2022-11-16T08:13:05.343Z,5.45
2022-11-16T08:15:38.411Z,5.80
2022-11-16T08:18:13.376Z,5.57
2022-11-16T08:20:46.005Z,6.57
2022-11-16T08:23:18.566Z,4.90
2022-11-16T08:25:51.802Z,5.18
2022-11-16T08:28:24.201Z,6.80
2022-11-16T08:30:58.146Z,5.25
2022-11-16T08:33:30.884Z,5.65
2022-11-16T08:36:09.486Z,5.55
2022-11-16T08:38:47.153Z,5.25
2022-11-16T08:41:20.602Z,5.45
2022-11-16T08:43:53.563Z,4.95
2022-11-16T08:46:28.727Z,4.60
2022-11-16T08:49:09.301Z,4.60
2022-11-16T08:51:41.747Z,4.90
2022-11-16T08:54:14.147Z,4.95
2022-11-16T08:56:48.025Z,3.85
2022-11-16T08:59:20.434Z,3.85
2022-11-16T09:01:56.956Z,5.38
2022-11-16T09:04:34.079Z,4.60
2022-11-16T09:09:42.033Z,5.28
2022-11-16T09:12:14.424Z,5.13
2022-11-16T09:14:46.773Z,4.72
2022-11-16T09:17:23.088Z,4.25
2022-11-16T09:19:55.767Z,3.58
2022-11-16T09:22:28.141Z,3.58
2022-11-16T09:25:00.874Z,3.58
2022-11-16T09:27:33.208Z,4.70
2022-11-16T09:30:07.029Z,3.70
2022-11-16T09:32:40.033Z,3.65
2022-11-16T09:35:12.461Z,4.38
2022-11-16T09:37:44.806Z,3.05
2022-11-16T09:40:17.511Z,3.85
2022-11-16T09:43:02.395Z,4.45
2022-11-16T09:45:43.882Z,3.38
2022-11-16T09:48:19.532Z,3.65
2022-11-16T09:51:06.732Z,3.40
2022-11-16T09:53:44.488Z,3.58
2022-11-16T09:56:22.454Z,3.00
2022-11-16T09:59:02.453Z,3.72
2022-11-16T10:04:15.282Z,3.17
2022-11-16T10:06:52.904Z,3.53
2022-11-16T10:09:25.647Z,2.92
2022-11-16T10:12:11.284Z,3.80
2022-11-16T10:15:14.580Z,3.55
2022-11-16T10:18:11.308Z,2.90
2022-11-16T10:21:12.290Z,3.67
2022-11-16T10:24:01.462Z,2.80
2022-11-16T10:26:41.012Z,2.83
2022-11-16T10:29:33.797Z,1.98
2022-11-16T10:32:16.556Z,2.53
2022-11-16T10:34:52.873Z,2.78
2022-11-16T10:37:30.742Z,2.97
2022-11-16T10:40:16.732Z,3.10
2022-11-16T10:42:59.972Z,3.22
2022-11-16T10:45:43.096Z,2.88
2022-11-16T10:48:27.129Z,3.05
2022-11-16T10:50:59.522Z,3.15
2022-11-16T10:53:35.923Z,9.85
2022-11-16T10:56:17.141Z,2.80
2022-11-16T10:58:55.448Z,2.08
2022-11-16T11:01:31.331Z,2.67
2022-11-16T11:04:15.931Z,3.20
2022-11-16T11:06:51.185Z,2.72
2022-11-16T11:09:27.986Z,2.50
2022-11-16T11:12:30.686Z,2.35
2022-11-16T11:15:15.268Z,2.17
2022-11-16T11:17:49.527Z,2.03
2022-11-16T11:20:24.064Z,2.05
2022-11-16T11:22:58.153Z,2.50
2022-11-16T11:25:33.831Z,1.92
2022-11-16T11:28:16.314Z,2.47
2022-11-16T11:30:57.679Z,1.75
2022-11-16T11:33:33.815Z,2.15
2022-11-16T11:36:12.651Z,1.70
2022-11-16T11:38:56.936Z,2.08
2022-11-16T11:41:36.514Z,2.28
2022-11-16T11:44:16.548Z,2.42
2022-11-16T11:49:52.620Z,2.17
2022-11-16T11:52:32.386Z,3.05
2022-11-16T11:55:08.268Z,4.18
2022-11-16T11:57:43.992Z,1.63
2022-11-16T12:00:17.709Z,2.45
2022-11-16T12:03:17.023Z,1.73
2022-11-16T12:06:07.364Z,2.05
2022-11-16T12:09:00.474Z,1.85
2022-11-16T12:11:44.262Z,1.45
2022-11-16T12:14:28.792Z,1.48
2022-11-16T12:17:09.352Z,1.20
2022-11-16T12:20:05.194Z,2.47
2022-11-16T12:22:54.076Z,1.85
2022-11-16T12:25:33.830Z,1.90
2022-11-16T12:28:21.573Z,1.80
2022-11-16T12:31:18.637Z,1.27
2022-11-16T12:34:01.089Z,1.30
2022-11-16T12:36:45.710Z,2.10
2022-11-16T12:39:23.690Z,1.90
2022-11-16T12:42:22.797Z,1.48
2022-11-16T12:45:31.980Z,2.05
2022-11-16T12:48:32.098Z,2.33
2022-11-16T12:53:52.305Z,1.40
2022-11-16T12:56:49.965Z,2.55
2022-11-16T12:59:42.599Z,2.25
2022-11-16T13:02:27.793Z,1.45
2022-11-16T13:05:11.724Z,2.70
2022-11-16T13:07:48.248Z,5.68
2022-11-16T13:10:26.236Z,6.78
2022-11-16T13:16:06.231Z,1.95
2022-11-16T13:18:41.616Z,6.55
2022-11-16T13:21:24.485Z,2.60
2022-11-16T13:24:09.551Z,2.35
2022-11-16T13:26:47.923Z,1.02
2022-11-16T13:29:29.598Z,2.20
2022-11-16T13:32:11.413Z,2.15
2022-11-16T13:34:45.015Z,1.40
2022-11-16T13:37:46.556Z,1.52
2022-11-16T13:40:27.223Z,1.83
2022-11-16T13:43:13.389Z,1.38
2022-11-16T13:45:58.909Z,1.23
2022-11-16T13:48:34.789Z,1.48
2022-11-16T13:51:17.700Z,1.17
2022-11-16T13:56:49.318Z,1.20
2022-11-16T13:59:25.783Z,1.17
2022-11-16T14:01:59.749Z,2.60
2022-11-16T14:04:57.164Z,1.17
2022-11-16T14:07:42.375Z,2.00
2022-11-16T14:10:54.818Z,1.30
2022-11-16T14:13:39.569Z,1.90
2022-11-16T14:16:54.699Z,2.08
2022-11-16T14:19:54.574Z,1.88
2022-11-16T14:25:18.884Z,1.95
2022-11-16T14:27:59.688Z,2.60
2022-11-16T14:30:43.061Z,2.00
2022-11-16T14:33:27.779Z,2.65
2022-11-16T14:36:02.665Z,2.90
2022-11-16T14:38:38.317Z,2.20
2022-11-16T14:41:19.677Z,2.15
2022-11-16T14:43:55.024Z,2.30
2022-11-16T14:46:34.474Z,2.05
2022-11-16T14:49:14.213Z,2.15
2022-11-16T14:54:27.122Z,2.35
2022-11-16T14:57:01.443Z,1.75
2022-11-16T14:59:33.812Z,2.22
2022-11-16T15:02:19.180Z,2.50
2022-11-16T15:04:52.987Z,2.75
2022-11-16T15:07:28.405Z,2.33
2022-11-16T15:10:00.975Z,2.53
2022-11-16T15:12:42.405Z,4.05
2022-11-16T15:15:17.121Z,2.85
2022-11-16T15:18:06.488Z,3.05
2022-11-16T15:20:48.856Z,2.90
2022-11-16T15:23:23.865Z,3.78
2022-11-16T15:26:01.655Z,2.65
2022-11-16T15:28:34.210Z,2.78
2022-11-16T15:31:08.761Z,1.70
2022-11-16T15:33:43.511Z,2.67
2022-11-16T15:36:23.979Z,1.85
2022-11-16T15:38:58.138Z,3.03
2022-11-16T15:41:30.786Z,1.98
2022-11-16T15:44:15.036Z,2.00
2022-11-16T15:46:50.572Z,3.38
2022-11-16T15:49:29.514Z,2.50
2022-11-16T15:52:01.984Z,2.67
2022-11-16T15:54:55.276Z,3.17
2022-11-16T15:57:27.678Z,2.40
2022-11-16T16:00:00.188Z,2.95
2022-11-16T16:02:32.655Z,3.67
2022-11-16T16:05:06.833Z,2.53
2022-11-16T16:07:40.759Z,3.47
2022-11-16T16:10:23.200Z,2.72
2022-11-16T16:12:56.971Z,4.45
2022-11-16T16:15:33.198Z,4.90
2022-11-16T16:18:39.940Z,4.15
2022-11-16T16:21:14.383Z,3.42
2022-11-16T16:23:48.014Z,3.05
2022-11-16T16:26:21.827Z,2.97
2022-11-16T16:28:54.209Z,2.53
2022-11-16T16:31:26.633Z,3.15
2022-11-16T16:33:59.284Z,4.57
2022-11-16T16:36:32.561Z,4.80
2022-11-16T16:39:05.017Z,3.97
2022-11-16T16:41:38.564Z,4.95
2022-11-16T16:44:14.957Z,4.45
2022-11-16T16:46:47.698Z,3.47
2022-11-16T16:49:20.187Z,4.53
2022-11-16T16:51:53.688Z,2.70
2022-11-16T16:54:28.505Z,3.88
2022-11-16T16:57:02.016Z,3.78
2022-11-16T16:59:34.410Z,3.45
2022-11-16T17:02:09.255Z,3.15
2022-11-16T17:04:43.451Z,4.97
2022-11-16T17:07:17.355Z,3.33
2022-11-16T17:09:53.281Z,3.28
2022-11-16T17:12:25.959Z,4.22
2022-11-16T17:15:00.843Z,3.72
2022-11-16T17:17:35.503Z,3.83
2022-11-16T17:20:11.001Z,3.25
2022-11-16T17:22:45.463Z,3.17
2022-11-16T17:25:18.065Z,3.97
2022-11-16T17:27:50.524Z,3.00
2022-11-16T17:30:24.933Z,1.92
2022-11-16T17:32:57.417Z,2.70
2022-11-16T17:35:29.868Z,2.70
2022-11-16T17:38:05.470Z,5.00
2022-11-16T17:40:38.021Z,3.90
2022-11-16T17:43:11.187Z,4.65
2022-11-16T17:45:45.909Z,3.88
2022-11-16T17:48:19.428Z,3.22
2022-11-16T17:50:52.293Z,2.38
2022-11-16T17:53:32.520Z,2.15
2022-11-16T17:56:06.538Z,3.15
2022-11-16T17:58:39.659Z,2.25
2022-11-16T18:01:13.291Z,2.53
2022-11-16T18:03:46.727Z,2.70
2022-11-16T18:06:20.892Z,3.03
2022-11-16T18:08:54.237Z,2.78
2022-11-16T18:11:27.855Z,2.38
2022-11-16T18:14:01.001Z,2.47
2022-11-16T18:16:34.067Z,1.98
2022-11-16T18:19:07.000Z,2.53
2022-11-16T18:21:40.393Z,2.90
2022-11-16T18:24:14.096Z,3.33
2022-11-16T18:26:46.479Z,1.88
2022-11-16T18:29:20.846Z,1.70
2022-11-16T18:31:53.223Z,1.67
2022-11-16T18:34:25.697Z,2.50
2022-11-16T18:36:58.073Z,2.17
2022-11-16T18:39:31.704Z,2.33
2022-11-16T18:42:04.817Z,2.25
2022-11-16T18:44:37.467Z,2.05
2022-11-16T18:47:09.867Z,2.22
2022-11-16T18:49:42.346Z,2.45
2022-11-16T18:52:16.891Z,2.22
2022-11-16T18:54:50.644Z,2.08
2022-11-16T18:57:23.035Z,2.10
2022-11-16T18:59:56.386Z,1.75
2022-11-16T19:02:28.804Z,2.00
2022-11-16T19:05:01.204Z,2.88
2022-11-16T19:07:35.200Z,1.45
2022-11-16T19:10:09.550Z,1.80
2022-11-16T19:12:41.931Z,3.40
2022-11-16T19:15:14.388Z,2.15
2022-11-16T19:18:14.273Z,2.63
2022-11-16T19:20:39.460Z,2.47
2022-11-16T19:23:11.840Z,2.38
2022-11-16T19:25:45.246Z,6.18
2022-11-16T19:28:17.906Z,4.80
2022-11-16T19:30:50.344Z,2.58
2022-11-16T19:33:23.331Z,2.70
2022-11-16T19:35:55.674Z,2.53
2022-11-16T19:38:29.384Z,3.25
2022-11-16T19:41:02.763Z,2.55
2022-11-16T19:43:35.623Z,1.85
2022-11-16T19:46:10.091Z,1.90
2022-11-16T19:48:45.056Z,2.90
2022-11-16T19:51:22.109Z,2.00
2022-11-16T19:53:55.225Z,1.70
2022-11-16T19:56:29.070Z,1.65
2022-11-16T19:59:01.526Z,2.20
2022-11-16T20:01:33.978Z,2.60
2022-11-16T20:04:06.411Z,1.70
2022-11-16T20:06:39.961Z,1.95
2022-11-16T20:09:12.327Z,3.20
2022-11-16T20:11:45.387Z,3.30
2022-11-16T20:14:17.786Z,3.05
2022-11-16T20:16:50.123Z,2.38
2022-11-16T20:19:22.397Z,1.67
2022-11-16T20:21:54.718Z,2.80
2022-11-16T20:24:27.061Z,4.00
2022-11-16T20:27:00.081Z,2.53
2022-11-16T20:29:32.406Z,1.80
2022-11-16T20:32:05.021Z,2.10
2022-11-16T20:34:37.443Z,1.70
2022-11-16T20:37:09.808Z,2.03
2022-11-16T20:39:42.151Z,1.90
2022-11-16T20:42:15.164Z,1.80
2022-11-16T20:44:47.533Z,1.27
2022-11-16T20:47:19.892Z,1.00
2022-11-16T20:49:52.315Z,1.95
2022-11-16T20:52:25.096Z,1.92
2022-11-16T20:54:57.499Z,1.60
2022-11-16T20:57:30.614Z,1.95
2022-11-16T21:00:04.391Z,1.95
2022-11-16T21:02:36.730Z,1.73
2022-11-16T21:05:09.492Z,1.65
2022-11-16T21:07:43.193Z,1.45
2022-11-16T21:10:19.233Z,1.40
2022-11-16T21:13:10.721Z,1.17
2022-11-16T21:15:43.049Z,1.27
2022-11-16T21:18:15.371Z,1.35
2022-11-16T21:20:47.677Z,1.48
2022-11-16T21:23:20.005Z,1.23
2022-11-16T21:25:52.404Z,1.27
2022-11-16T21:28:25.765Z,1.48
2022-11-16T21:30:59.326Z,1.20
2022-11-16T21:33:32.081Z,1.40
2022-11-16T21:36:05.672Z,1.10
2022-11-16T21:38:38.311Z,1.52
2022-11-16T21:41:11.728Z,1.10
2022-11-16T21:43:45.416Z,1.30
2022-11-16T21:46:19.402Z,1.10
2022-11-16T21:48:53.122Z,1.40
2022-11-16T21:51:26.676Z,1.42
2022-11-16T21:53:59.007Z,1.23
2022-11-16T21:56:31.428Z,1.67
2022-11-16T21:59:04.428Z,1.63
2022-11-16T22:01:51.316Z,1.10
2022-11-16T22:04:41.624Z,1.45
2022-11-16T22:07:32.767Z,2.72
2022-11-16T22:10:07.152Z,1.40
2022-11-16T22:12:39.510Z,1.33
2022-11-16T22:15:12.598Z,1.25
2022-11-16T22:17:45.214Z,1.10
2022-11-16T22:20:17.642Z,1.50
2022-11-16T22:22:50.029Z,1.23
2022-11-16T22:25:22.549Z,1.30
2022-11-16T22:30:51.738Z,1.63
2022-11-16T22:33:24.524Z,2.10
2022-11-16T22:35:57.169Z,1.65
2022-11-16T22:38:29.949Z,1.15
2022-11-16T22:41:02.447Z,0.98
2022-11-16T22:43:36.744Z,1.77
2022-11-16T22:46:10.805Z,1.52
2022-11-16T22:48:44.276Z,1.40
2022-11-16T22:51:19.629Z,1.50
2022-11-16T22:53:53.541Z,1.40
2022-11-16T22:56:27.150Z,1.73
2022-11-16T22:59:00.400Z,2.10
2022-11-16T23:01:33.411Z,1.25
2022-11-16T23:04:05.785Z,1.88
2022-11-16T23:06:38.365Z,1.50
2022-11-16T23:09:10.675Z,2.00
2022-11-16T23:12:01.231Z,1.60
2022-11-16T23:14:51.708Z,1.35
2022-11-16T23:17:24.755Z,1.27
2022-11-16T23:20:17.776Z,1.17
2022-11-16T23:23:08.368Z,1.67
2022-11-16T23:34:57.806Z,2.17
2022-11-16T23:37:30.195Z,1.92
2022-11-16T23:40:06.366Z,1.25
2022-11-16T23:42:56.886Z,1.73
2022-11-16T23:45:29.336Z,1.48
2022-11-16T23:48:01.882Z,1.08
2022-11-16T23:50:35.700Z,1.50
2022-11-16T23:53:09.098Z,1.73
2022-11-16T23:55:41.490Z,1.90
2022-11-16T23:58:14.674Z,1.50
